Time;durP1;ratioP1;P1;durP2;ratioP2;P2;SDS_P1;SDS_P2;PMS_P1;PMS_P2;Temp;Humidity;BMP_temperature;BMP_pressure;BME280_temperature;BME280_humidity;BME280_pressure;Samples;Min_cycle;Max_cycle;Signal;HPM_P1;HPM_P2
2022/08/30 00:03:06;;;;;;;3.37;1.90;;;23.20;52.20;;;;;;2376849;54;21011;-70
2022/08/30 00:05:32;;;;;;;3.00;1.87;;;23.10;52.10;;;;;;2266324;55;20974;-71
2022/08/30 00:07:58;;;;;;;3.47;2.05;;;23.10;52.20;;;;;;2269587;55;21020;-70
2022/08/30 00:10:25;;;;;;;3.30;1.92;;;23.10;52.30;;;;;;2266927;56;21048;-72
2022/08/30 00:12:51;;;;;;;3.58;2.10;;;23.10;52.40;;;;;;2260409;56;20993;-70
2022/08/30 00:15:18;;;;;;;3.17;1.92;;;23.00;52.60;;;;;;2360462;55;21019;-70
2022/08/30 00:17:44;;;;;;;3.28;1.87;;;23.00;52.60;;;;;;2329252;55;21473;-71
2022/08/30 00:20:27;;;;;;;3.72;2.12;;;23.00;52.60;;;;;;2262382;56;21032;-70
2022/08/30 00:23:17;;;;;;;;;;;23.00;52.90;;;;;;2274759;55;21831;-71
2022/08/30 00:25:44;;;;;;;2.87;1.70;;;23.00;52.80;;;;;;2264312;56;20062;-70
2022/08/30 00:28:11;;;;;;;3.87;1.62;;;22.90;52.40;;;;;;2269104;55;21469;-70
2022/08/30 00:30:41;;;;;;;3.37;1.92;;;22.90;52.50;;;;;;2263400;55;21072;-71
2022/08/30 00:33:07;;;;;;;2.92;1.80;;;22.80;52.70;;;;;;2264980;56;20984;-70
2022/08/30 00:35:34;;;;;;;2.62;1.60;;;22.80;52.70;;;;;;2256231;55;21102;-71
2022/08/30 00:38:00;;;;;;;4.07;2.35;;;22.70;52.60;;;;;;2455532;55;21008;-71
2022/08/30 00:40:35;;;;;;;3.08;1.83;;;22.70;52.80;;;;;;2367906;55;21553;-71
2022/08/30 00:43:02;;;;;;;3.30;2.00;;;22.70;53.10;;;;;;2267051;55;21020;-71
2022/08/30 00:45:34;;;;;;;3.60;2.25;;;22.60;52.90;;;;;;2335919;55;20960;-71
2022/08/30 00:48:01;;;;;;;4.55;1.90;;;22.60;53.00;;;;;;2264502;56;21537;-71
2022/08/30 00:50:30;;;;;;;2.92;1.73;;;22.60;53.00;;;;;;2262191;55;21043;-72
2022/08/30 00:53:19;;;;;;;3.20;1.90;;;22.60;53.00;;;;;;2265557;55;20952;-71
2022/08/30 00:55:47;;;;;;;3.60;1.92;;;22.50;53.20;;;;;;2262963;55;20996;-72
2022/08/30 00:58:20;;;;;;;3.40;2.08;;;22.50;53.60;;;;;;2267152;55;20987;-70
2022/08/30 01:00:48;;;;;;;3.40;2.15;;;22.50;53.10;;;;;;2267753;55;20991;-70
2022/08/30 01:03:19;;;;;;;3.30;2.08;;;22.40;53.00;;;;;;2260440;56;21019;-71
2022/08/30 01:05:52;;;;;;;2.93;1.77;;;22.40;53.30;;;;;;2452839;55;21065;-71
2022/08/30 01:08:20;;;;;;;;;;;22.40;53.30;;;;;;2269501;55;21759;-72
2022/08/30 01:10:47;;;;;;;3.58;2.03;;;22.40;53.30;;;;;;2265119;55;20121;-71
2022/08/30 01:13:13;;;;;;;3.53;1.65;;;22.40;53.20;;;;;;2264531;56;20952;-71
2022/08/30 01:15:42;;;;;;;2.97;2.00;;;22.30;53.20;;;;;;2265173;55;21038;-70
2022/08/30 01:18:11;;;;;;;4.12;2.20;;;22.30;53.30;;;;;;2350622;55;20959;-71
2022/08/30 01:20:50;;;;;;;2.97;1.73;;;22.30;53.30;;;;;;2266947;55;20964;-72
2022/08/30 01:23:36;;;;;;;3.28;2.12;;;22.20;53.30;;;;;;2270918;55;20944;-70
2022/08/30 01:26:03;;;;;;;3.40;1.90;;;22.20;53.50;;;;;;2300720;55;20960;-72
2022/08/30 01:28:29;;;;;;;3.87;2.15;;;22.20;53.30;;;;;;2261404;56;21106;-71
2022/08/30 01:31:17;;;;;;;4.70;2.28;;;22.20;53.30;;;;;;2313260;55;21078;-71
2022/08/30 01:33:44;;;;;;;4.15;2.12;;;22.10;53.70;;;;;;2304022;55;21044;-71
2022/08/30 01:36:16;;;;;;;3.10;2.05;;;22.10;53.40;;;;;;2263794;56;20948;-72
2022/08/30 01:38:50;;;;;;;3.15;1.83;;;22.10;53.60;;;;;;2357220;55;21036;-72
2022/08/30 01:41:27;;;;;;;4.35;2.15;;;22.10;53.50;;;;;;2262816;55;20972;-72
2022/08/30 01:44:30;;;;;;;3.47;2.00;;;22.00;54.00;;;;;;2433794;55;21024;-70
2022/08/30 01:46:57;;;;;;;3.42;1.83;;;22.00;54.00;;;;;;2263515;55;21418;-71
2022/08/30 01:49:23;;;;;;;4.25;2.30;;;22.00;53.80;;;;;;2267894;55;21071;-70
2022/08/30 01:51:50;;;;;;;4.40;1.95;;;21.90;53.80;;;;;;2264084;55;20960;-71
2022/08/30 01:54:16;;;;;;;3.65;2.10;;;21.90;54.00;;;;;;2488898;55;20941;-71
2022/08/30 01:56:44;;;;;;;3.42;2.00;;;21.90;54.00;;;;;;2263671;56;21039;-70
2022/08/30 01:59:13;;;;;;;4.53;2.42;;;21.90;54.00;;;;;;2311255;55;20941;-70
2022/08/30 02:01:39;;;;;;;4.05;2.50;;;21.90;54.10;;;;;;2337025;55;21100;-71
2022/08/30 02:04:42;;;;;;;3.70;2.25;;;21.90;54.20;;;;;;2245352;56;22446;-71
2022/08/30 02:07:08;;;;;;;5.07;2.40;;;21.90;54.50;;;;;;2262833;56;20936;-71
2022/08/30 02:09:58;;;;;;;3.33;2.10;;;21.80;54.10;;;;;;2263974;56;21710;-70
2022/08/30 02:12:25;;;;;;;4.05;2.20;;;21.80;54.30;;;;;;2264861;55;20928;-70
2022/08/30 02:14:53;;;;;;;3.78;2.00;;;21.80;54.10;;;;;;2266833;56;20968;-70
2022/08/30 02:17:41;;;;;;;5.05;2.30;;;21.80;54.10;;;;;;2262422;55;21004;-71
2022/08/30 02:20:08;;;;;;;3.50;2.10;;;21.70;54.20;;;;;;2265198;55;21003;-71
2022/08/30 02:22:35;;;;;;;4.53;2.58;;;21.70;54.00;;;;;;2316161;54;21906;-70
2022/08/30 02:25:04;;;;;;;3.70;2.40;;;21.70;54.30;;;;;;2269654;55;20956;-70
2022/08/30 02:27:30;;;;;;;4.43;2.30;;;21.70;54.40;;;;;;2256584;56;21050;-72
2022/08/30 02:29:56;;;;;;;3.45;2.00;;;21.60;54.40;;;;;;2486224;55;20961;-71
2022/08/30 02:32:24;;;;;;;4.00;2.00;;;21.60;54.50;;;;;;2263577;56;20995;-70
2022/08/30 02:35:43;;;;;;;3.30;1.95;;;21.60;54.50;;;;;;2264854;55;20948;-70
2022/08/30 02:38:09;;;;;;;3.55;2.05;;;21.60;54.70;;;;;;2260891;55;21840;-71
2022/08/30 02:40:39;;;;;;;3.22;2.10;;;21.50;54.20;;;;;;2406757;54;21769;-70
2022/08/30 02:43:06;;;;;;;3.33;1.73;;;21.50;54.30;;;;;;2266825;56;21433;-71
2022/08/30 02:45:53;;;;;;;4.15;1.75;;;21.50;54.30;;;;;;2262461;56;21016;-71
2022/08/30 02:48:23;;;;;;;2.90;1.80;;;21.40;54.50;;;;;;2267533;55;21115;-71
2022/08/30 02:50:50;;;;;;;3.12;1.80;;;21.40;54.30;;;;;;2262399;55;21840;-71
2022/08/30 02:53:17;;;;;;;3.83;1.90;;;21.40;54.40;;;;;;2261616;56;20988;-70
2022/08/30 02:55:43;;;;;;;3.50;2.10;;;21.40;54.40;;;;;;2264935;55;21464;-70
2022/08/30 02:58:09;;;;;;;5.05;2.20;;;21.40;54.40;;;;;;2276280;55;20982;-72
2022/08/30 03:00:36;;;;;;;3.80;2.10;;;21.30;55.20;;;;;;2265132;56;21307;-70
2022/08/30 03:03:29;;;;;;;4.60;2.35;;;21.30;54.60;;;;;;2267843;55;20984;-70
2022/08/30 03:05:55;;;;;;;4.12;2.67;;;21.30;54.80;;;;;;2334318;55;21757;-71
2022/08/30 03:08:21;;;;;;;4.03;2.33;;;21.30;54.60;;;;;;2261009;56;21469;-71
2022/08/30 03:10:51;;;;;;;3.90;2.28;;;21.20;54.80;;;;;;2245909;56;21048;-70
2022/08/30 03:13:17;;;;;;;3.92;2.37;;;21.20;54.90;;;;;;2267430;55;21148;-70
2022/08/30 03:15:44;;;;;;;3.75;2.40;;;21.20;54.90;;;;;;2259939;56;20979;-71
2022/08/30 03:18:10;;;;;;;3.72;2.42;;;21.20;54.90;;;;;;2269801;55;21012;-71
2022/08/30 03:20:48;;;;;;;4.32;2.33;;;21.20;55.10;;;;;;2261736;55;20959;-71
2022/08/30 03:23:15;;;;;;;4.97;2.05;;;21.20;55.20;;;;;;2265152;56;21008;-70
2022/08/30 03:26:06;;;;;;;3.05;1.90;;;21.10;54.90;;;;;;2261467;56;21031;-70
2022/08/30 03:28:32;;;;;;;3.90;1.80;;;21.10;55.00;;;;;;2265344;55;20961;-70
2022/08/30 03:30:59;;;;;;;4.62;2.12;;;21.10;54.80;;;;;;2356122;55;21549;-70
2022/08/30 03:33:25;;;;;;;4.82;2.25;;;21.00;54.60;;;;;;2403103;55;21473;-69
2022/08/30 03:35:53;;;;;;;4.18;1.98;;;21.00;54.70;;;;;;2266892;55;21063;-71
2022/08/30 03:38:21;;;;;;;3.53;1.77;;;21.00;54.70;;;;;;2263611;55;20960;-70
2022/08/30 03:40:47;;;;;;;3.00;1.73;;;20.90;54.70;;;;;;2267588;56;21828;-72
2022/08/30 03:43:28;;;;;;;5.57;2.00;;;20.90;54.70;;;;;;2265259;56;20957;-70
2022/08/30 03:45:55;;;;;;;3.65;2.37;;;20.90;54.90;;;;;;2262862;55;20928;-72
2022/08/30 03:48:23;;;;;;;3.37;2.03;;;20.90;55.00;;;;;;2266322;56;21440;-72
2022/08/30 03:50:50;;;;;;;3.80;2.45;;;20.90;55.10;;;;;;2264554;56;20944;-70
2022/08/30 03:53:39;;;;;;;3.67;2.40;;;20.80;55.10;;;;;;2264753;56;20985;-71
2022/08/30 03:56:06;;;;;;;4.85;2.10;;;20.80;55.50;;;;;;2271362;55;20948;-72
2022/08/30 03:58:33;;;;;;;3.58;2.22;;;20.80;55.10;;;;;;2267609;55;21083;-70
2022/08/30 04:00:59;;;;;;;4.07;2.47;;;20.80;55.10;;;;;;2260537;56;20953;-72
2022/08/30 04:03:26;;;;;;;3.70;2.10;;;20.80;55.10;;;;;;2262343;56;20972;-73
2022/08/30 04:05:53;;;;;;;3.55;2.50;;;20.70;55.10;;;;;;2262117;55;21290;-71
2022/08/30 04:08:56;;;;;;;3.97;2.60;;;20.70;55.20;;;;;;2264745;55;21793;-71
2022/08/30 04:11:22;;;;;;;3.87;2.40;;;20.70;55.70;;;;;;2237834;55;21012;-70
2022/08/30 04:13:54;;;;;;;3.92;2.50;;;20.70;55.40;;;;;;2271853;55;21032;-72
2022/08/30 04:16:20;;;;;;;3.45;2.10;;;20.60;55.30;;;;;;2267602;56;20957;-72
2022/08/30 04:18:47;;;;;;;5.45;1.98;;;20.60;55.30;;;;;;2262613;56;21043;-72
2022/08/30 04:21:14;;;;;;;3.83;2.37;;;20.60;55.30;;;;;;2261973;55;20976;-70
2022/08/30 04:23:42;;;;;;;3.62;1.95;;;20.60;55.50;;;;;;2292019;55;20972;-71
2022/08/30 04:26:08;;;;;;;3.37;2.08;;;20.60;55.50;;;;;;2258308;55;21067;-72
2022/08/30 04:28:36;;;;;;;4.30;2.00;;;20.60;55.40;;;;;;2270048;55;21017;-71
2022/08/30 04:31:13;;;;;;;3.78;1.98;;;20.50;55.30;;;;;;2299554;55;21745;-71
2022/08/30 04:33:39;;;;;;;3.25;1.90;;;20.50;55.50;;;;;;2481122;55;21039;-72
2022/08/30 04:36:18;;;;;;;4.37;2.70;;;20.50;55.40;;;;;;2308554;55;21567;-73
2022/08/30 04:38:45;;;;;;;4.40;2.10;;;20.50;55.50;;;;;;2265707;56;21553;-70
2022/08/30 04:41:16;;;;;;;4.30;2.28;;;20.50;55.40;;;;;;2260081;55;21031;-70
2022/08/30 04:43:43;;;;;;;4.22;2.20;;;20.40;55.30;;;;;;2266399;55;21292;-72
2022/08/30 04:46:18;;;;;;;3.28;2.00;;;20.40;55.30;;;;;;2265833;56;21021;-72
2022/08/30 04:48:45;;;;;;;3.45;1.85;;;20.40;55.40;;;;;;2261158;56;20960;-70
2022/08/30 04:54:32;;;;;;;3.30;2.00;;;20.40;55.60;;;;;;2263251;56;21077;-71
2022/08/30 04:56:59;;;;;;;2.97;1.95;;;20.30;55.40;;;;;;2263465;55;21019;-71
2022/08/30 04:59:25;;;;;;;3.75;2.10;;;20.30;55.50;;;;;;2266282;55;20960;-72
2022/08/30 05:01:53;;;;;;;3.25;1.87;;;20.30;55.50;;;;;;2267577;55;20943;-70
2022/08/30 05:04:19;;;;;;;3.03;1.90;;;20.30;55.50;;;;;;2265754;56;21001;-73
2022/08/30 05:07:04;;;;;;;4.25;2.28;;;20.30;55.50;;;;;;2260374;56;20965;-71
2022/08/30 05:09:30;;;;;;;3.70;1.90;;;20.30;55.70;;;;;;2270841;55;20945;-71
2022/08/30 05:12:02;;;;;;;3.70;2.08;;;20.20;55.50;;;;;;2257839;56;20972;-71
2022/08/30 05:14:29;;;;;;;3.25;1.95;;;20.20;55.60;;;;;;2268944;55;21024;-72
2022/08/30 05:16:55;;;;;;;3.45;2.17;;;20.20;55.60;;;;;;2275913;55;21555;-72
2022/08/30 05:19:22;;;;;;;3.78;2.17;;;20.20;55.70;;;;;;2264330;56;20937;-71
2022/08/30 05:21:48;;;;;;;3.30;1.70;;;20.20;55.70;;;;;;2267583;55;21049;-72
2022/08/30 05:24:15;;;;;;;3.05;1.87;;;20.10;55.70;;;;;;2262431;56;21000;-72
2022/08/30 05:26:59;;;;;;;3.97;2.05;;;20.10;55.90;;;;;;2269970;55;20964;-70
2022/08/30 05:29:29;;;;;;;4.20;2.33;;;20.10;56.30;;;;;;2258604;56;20991;-71
2022/08/30 05:31:56;;;;;;;5.62;2.55;;;20.10;56.20;;;;;;2384896;55;20944;-71
2022/08/30 05:37:57;;;;;;;3.35;1.92;;;20.10;56.30;;;;;;2332295;55;20980;-73
2022/08/30 05:40:24;;;;;;;3.78;2.17;;;20.20;56.10;;;;;;2265618;56;21000;-72
2022/08/30 05:43:05;;;;;;;4.62;2.28;;;20.10;56.10;;;;;;2265648;55;20999;-73
2022/08/30 05:45:35;;;;;;;3.92;2.37;;;20.10;57.00;;;;;;2263432;55;20937;-72
2022/08/30 05:48:06;;;;;;;4.78;1.85;;;20.20;56.20;;;;;;2256641;56;20971;-73
2022/08/30 05:50:42;;;;;;;3.20;1.98;;;20.20;56.40;;;;;;2268669;55;21120;-71
2022/08/30 05:53:11;;;;;;;4.25;2.12;;;20.10;56.40;;;;;;2457106;55;21008;-72
2022/08/30 05:55:47;;;;;;;3.40;1.85;;;20.20;56.40;;;;;;2262606;56;20965;-71
2022/08/30 05:58:13;;;;;;;2.62;1.58;;;20.20;56.60;;;;;;2348892;55;21499;-71
2022/08/30 06:00:39;;;;;;;3.40;2.10;;;20.20;56.50;;;;;;2308118;54;20936;-72
2022/08/30 06:03:05;;;;;;;2.80;1.80;;;20.20;56.50;;;;;;2259682;55;21545;-71
2022/08/30 06:05:56;;;;;;;3.37;1.85;;;20.20;56.60;;;;;;2263042;55;21035;-71
2022/08/30 06:08:22;;;;;;;4.25;2.33;;;20.20;57.10;;;;;;2367396;55;20981;-72
2022/08/30 06:10:50;;;;;;;3.58;1.98;;;20.20;56.80;;;;;;2487540;55;20968;-72
2022/08/30 06:13:16;;;;;;;3.65;1.98;;;20.30;57.00;;;;;;2267564;55;20985;-72
2022/08/30 06:15:43;;;;;;;3.45;2.05;;;20.30;57.10;;;;;;2259521;55;21096;-72
2022/08/30 06:18:25;;;;;;;3.70;1.90;;;20.30;57.10;;;;;;2258847;55;20979;-71
2022/08/30 06:20:55;;;;;;;3.80;2.30;;;20.40;57.60;;;;;;2339903;55;21019;-71
2022/08/30 06:23:22;;;;;;;4.72;2.60;;;20.30;57.30;;;;;;2268676;55;21263;-72
2022/08/30 06:25:49;;;;;;;4.30;2.28;;;20.50;57.50;;;;;;2265751;56;20928;-70
2022/08/30 06:28:15;;;;;;;4.30;2.47;;;20.50;57.60;;;;;;2255494;55;21070;-71
2022/08/30 06:30:42;;;;;;;4.65;3.05;;;20.60;57.70;;;;;;2261868;56;21003;-72
2022/08/30 06:33:09;;;;;;;4.95;3.05;;;20.60;57.80;;;;;;2259385;56;21560;-72
2022/08/30 06:35:35;;;;;;;5.32;3.00;;;20.70;57.90;;;;;;2278877;55;20967;-72
2022/08/30 06:38:04;;;;;;;4.37;2.78;;;20.70;58.00;;;;;;2260629;55;21993;-72
2022/08/30 06:40:30;;;;;;;5.05;2.10;;;20.80;57.90;;;;;;2261393;55;20957;-73
2022/08/30 06:42:59;;;;;;;5.28;2.70;;;20.80;57.80;;;;;;2264587;55;20943;-71
2022/08/30 06:45:25;;;;;;;3.92;2.00;;;20.90;57.80;;;;;;2264729;56;20967;-68
2022/08/30 06:47:52;;;;;;;4.82;2.87;;;20.90;57.60;;;;;;2493060;55;20991;-69
2022/08/30 06:50:30;;;;;;;4.57;2.55;;;21.00;57.70;;;;;;2269798;55;20993;-71
2022/08/30 06:53:03;;;;;;;4.68;2.67;;;21.10;57.90;;;;;;2263912;56;20952;-70
2022/08/30 06:55:32;;;;;;;4.40;2.65;;;21.10;57.70;;;;;;2265173;55;20976;-69
2022/08/30 06:58:01;;;;;;;3.90;2.30;;;21.20;57.60;;;;;;2264682;55;21000;-72
2022/08/30 07:00:29;;;;;;;4.07;2.55;;;21.20;57.50;;;;;;2266461;55;21029;-67
2022/08/30 07:02:55;;;;;;;5.35;2.42;;;21.20;57.50;;;;;;2392250;55;20959;-70
2022/08/30 07:05:22;;;;;;;4.47;2.87;;;21.30;57.70;;;;;;2259383;55;21294;-70
2022/08/30 07:08:16;;;;;;;5.45;2.60;;;21.40;57.80;;;;;;2259828;56;21024;-72
2022/08/30 07:10:42;;;;;;;4.32;2.97;;;21.40;57.80;;;;;;2311769;55;21067;-69
2022/08/30 07:13:09;;;;;;;6.30;2.17;;;21.50;57.80;;;;;;2265214;55;21000;-70
2022/08/30 07:15:42;;;;;;;5.15;2.42;;;21.50;57.70;;;;;;2258798;55;21030;-71
2022/08/30 07:20:56;;;;;;;4.05;2.40;;;21.70;57.70;;;;;;2269284;55;21477;-69
2022/08/30 07:23:23;;;;;;;4.35;2.35;;;21.70;57.60;;;;;;2264128;56;20971;-72
2022/08/30 07:25:49;;;;;;;4.12;2.00;;;21.80;57.50;;;;;;2258991;56;21066;-71
2022/08/30 07:28:16;;;;;;;4.07;2.33;;;21.90;57.50;;;;;;2288761;55;20981;-70
2022/08/30 07:30:42;;;;;;;3.60;2.03;;;21.90;57.50;;;;;;2265731;55;21760;-73
2022/08/30 07:33:09;;;;;;;5.25;2.40;;;22.00;57.50;;;;;;2265492;56;21012;-70
2022/08/30 07:35:36;;;;;;;4.30;2.20;;;22.00;57.50;;;;;;2441597;55;21075;-70
2022/08/30 07:38:04;;;;;;;5.90;2.22;;;22.10;57.50;;;;;;2268041;55;21012;-70
2022/08/30 07:40:30;;;;;;;3.85;2.10;;;22.20;57.50;;;;;;2266377;55;20984;-70
2022/08/30 07:43:00;;;;;;;4.70;2.60;;;22.30;57.70;;;;;;2261383;55;21080;-71
2022/08/30 07:45:27;;;;;;;7.10;3.40;;;22.30;57.80;;;;;;2266485;55;21307;-71
2022/08/30 07:47:53;;;;;;;6.00;2.80;;;22.40;58.00;;;;;;2487213;55;20976;-70
2022/08/30 07:50:21;;;;;;;11.18;3.87;;;22.50;58.00;;;;;;2260088;55;21003;-69
2022/08/30 07:52:47;;;;;;;4.05;2.12;;;22.60;57.90;;;;;;2268945;56;21536;-71
2022/08/30 07:55:18;;;;;;;3.70;2.35;;;22.60;57.70;;;;;;2261118;56;20912;-69
2022/08/30 07:57:44;;;;;;;3.33;1.85;;;22.70;57.70;;;;;;2259146;55;20972;-70
2022/08/30 08:00:11;;;;;;;4.35;2.10;;;22.80;57.80;;;;;;2265066;55;20996;-69
2022/08/30 08:02:39;;;;;;;5.28;2.53;;;22.80;57.80;;;;;;2266747;55;20988;-70
2022/08/30 08:05:07;;;;;;;4.40;2.30;;;22.90;58.00;;;;;;2267870;55;21480;-70
2022/08/30 08:07:33;;;;;;;4.15;2.50;;;23.00;58.10;;;;;;2340693;55;20999;-72
2022/08/30 08:09:59;;;;;;;4.15;2.45;;;23.10;58.10;;;;;;2265057;55;21926;-70
2022/08/30 08:12:27;;;;;;;5.30;2.80;;;23.20;58.10;;;;;;2268478;56;21000;-72
2022/08/30 08:14:55;;;;;;;5.03;2.90;;;23.30;58.00;;;;;;2263722;55;20964;-70
2022/08/30 08:17:21;;;;;;;4.60;2.62;;;23.40;58.00;;;;;;2261168;55;21358;-72
2022/08/30 08:19:47;;;;;;;4.90;3.00;;;23.50;58.00;;;;;;2267677;55;21540;-70
2022/08/30 08:22:14;;;;;;;5.62;2.80;;;23.60;57.90;;;;;;2261583;55;21339;-70
2022/08/30 08:24:46;;;;;;;6.80;3.12;;;23.70;58.00;;;;;;2268759;55;21003;-70
2022/08/30 08:27:12;;;;;;;5.00;2.85;;;23.80;57.80;;;;;;2319098;55;21457;-70
2022/08/30 08:30:06;;;;;;;4.18;2.58;;;23.90;57.60;;;;;;2302186;55;21259;-70
2022/08/30 08:32:32;;;;;;;3.90;2.47;;;24.00;57.30;;;;;;2265471;56;21438;-71
2022/08/30 08:34:59;;;;;;;7.43;2.75;;;24.10;57.30;;;;;;2264554;56;21815;-69
2022/08/30 08:37:26;;;;;;;5.25;3.22;;;24.20;57.30;;;;;;2242301;55;20976;-73
2022/08/30 08:39:52;;;;;;;4.85;2.92;;;24.30;57.20;;;;;;2378889;55;21840;-70
2022/08/30 08:42:50;;;;;;;4.50;3.15;;;24.40;57.10;;;;;;2299129;55;20984;-73
2022/08/30 08:47:59;;;;;;;4.50;3.10;;;24.50;57.00;;;;;;2266989;55;21370;-70
2022/08/30 08:50:26;;;;;;;3.67;2.53;;;24.60;57.40;;;;;;2474623;55;20979;-69
2022/08/30 08:56:07;;;;;;;4.68;2.50;;;24.80;56.80;;;;;;2265041;56;20944;-72
2022/08/30 08:58:40;;;;;;;4.15;2.58;;;25.00;56.90;;;;;;2270890;55;20944;-70
2022/08/30 09:01:08;;;;;;;4.32;2.67;;;25.00;56.70;;;;;;2262942;56;21017;-69
2022/08/30 09:03:43;;;;;;;6.53;2.58;;;25.10;56.80;;;;;;2265048;56;21111;-70
2022/08/30 09:06:39;;;;;;;4.82;2.60;;;25.20;56.50;;;;;;2377720;55;20951;-70
2022/08/30 09:09:07;;;;;;;4.30;2.47;;;25.30;56.50;;;;;;2450627;55;21874;-69
2022/08/30 09:11:54;;;;;;;4.12;2.70;;;25.40;56.60;;;;;;2487502;55;20975;-69
2022/08/30 09:14:33;;;;;;;3.85;2.42;;;25.50;56.30;;;;;;2266158;55;20996;-69
2022/08/30 09:17:04;;;;;;;4.25;2.42;;;25.60;56.40;;;;;;2262992;55;20996;-70
2022/08/30 09:39:32;;;;;;;4.00;2.67;;;25.70;56.50;;;;;;2246818;56;21002;-73
2022/08/30 09:42:22;;;;;;;3.05;1.65;;;26.40;55.70;;;;;;2374040;53;23701;-69
2022/08/30 09:44:48;;;;;;;3.55;1.65;;;26.50;55.10;;;;;;2341422;54;20954;-71
2022/08/30 09:47:28;;;;;;;4.40;2.03;;;26.50;55.10;;;;;;2338227;54;21490;-72
2022/08/30 09:50:17;;;;;;;3.90;2.00;;;26.60;54.70;;;;;;2325717;53;20976;-69
2022/08/30 09:53:15;;;;;;;3.53;2.15;;;26.60;54.40;;;;;;2541240;53;21041;-70
2022/08/30 09:56:15;;;;;;;3.78;2.20;;;26.80;54.60;;;;;;2331591;53;20966;-69
2022/08/30 10:01:23;;;;;;;3.72;2.30;;;26.90;54.50;;;;;;2389523;53;21848;-72
2022/08/30 10:06:28;;;;;;;3.17;1.70;;;27.10;54.50;;;;;;2348382;53;20956;-69
2022/08/30 10:10:54;;;;;;;3.33;1.75;;;27.20;55.00;;;;;;2334999;54;20956;-70
2022/08/30 10:13:57;;;;;;;3.15;1.92;;;27.50;53.90;;;;;;2364723;53;20991;-70
2022/08/30 10:16:49;;;;;;;3.40;1.98;;;27.60;53.50;;;;;;2337233;54;21331;-69
2022/08/30 10:19:37;;;;;;;3.70;2.15;;;27.70;53.50;;;;;;2337956;54;20976;-68
2022/08/30 10:22:29;;;;;;;4.07;2.12;;;27.70;53.10;;;;;;2458034;53;21495;-71
2022/08/30 10:26:06;;;;;;;3.85;2.10;;;27.90;53.00;;;;;;2371549;53;21004;-69
2022/08/30 10:28:46;;;;;;;3.47;1.95;;;27.90;52.80;;;;;;2345418;53;20911;-71
2022/08/30 10:33:51;;;;;;;4.28;2.28;;;28.10;52.90;;;;;;2331744;53;20988;-69
2022/08/30 10:36:17;;;;;;;3.67;1.83;;;28.20;53.00;;;;;;2327827;54;21021;-70
2022/08/30 10:38:47;;;;;;;3.70;1.83;;;28.30;52.80;;;;;;2376964;54;21004;-69
2022/08/30 10:44:43;;;;;;;3.80;2.08;;;28.40;52.00;;;;;;2340976;53;21059;-70
2022/08/30 10:54:12;;;;;;;3.15;1.92;;;28.50;52.20;;;;;;2330202;54;21028;-71
2022/08/30 10:56:40;;;;;;;2.62;1.27;;;28.50;51.80;;;;;;2327442;54;21031;-70
2022/08/30 10:59:06;;;;;;;3.00;1.65;;;28.80;52.50;;;;;;2320663;54;21081;-69
2022/08/30 11:04:46;;;;;;;3.35;1.62;;;28.90;52.60;;;;;;2320924;54;21060;-70
2022/08/30 11:08:07;;;;;;;3.72;1.87;;;29.10;52.60;;;;;;2327663;54;20981;-69
2022/08/30 11:11:00;;;;;;;3.00;1.87;;;29.10;51.40;;;;;;2326856;54;21016;-69
2022/08/30 11:13:39;;;;;;;2.83;1.95;;;29.30;51.50;;;;;;2328421;54;21013;-71
2022/08/30 11:16:14;;;;;;;3.20;1.73;;;29.30;51.20;;;;;;2328912;54;21402;-69
2022/08/30 11:18:50;;;;;;;4.57;2.42;;;29.40;51.40;;;;;;2323258;54;20922;-68
2022/08/30 11:21:39;;;;;;;3.03;1.77;;;29.50;50.70;;;;;;2324912;54;20927;-69
2022/08/30 11:27:45;;;;;;;4.72;2.20;;;29.70;50.50;;;;;;2430048;53;21399;-69
2022/08/30 11:33:08;;;;;;;5.15;2.10;;;29.70;50.20;;;;;;2330821;54;20995;-70
2022/08/30 11:35:45;;;;;;;3.28;1.87;;;29.80;50.70;;;;;;2558414;53;20920;-69
2022/08/30 11:51:44;;;;;;;4.03;1.90;;;30.00;50.00;;;;;;2538923;53;21029;-71
2022/08/30 11:55:01;;;;;;;2.72;1.37;;;30.40;50.50;;;;;;2337990;54;21068;-68
2022/08/30 11:57:53;;;;;;;4.55;1.83;;;30.40;50.00;;;;;;2338902;54;20988;-71
2022/08/30 12:00:39;;;;;;;3.83;1.80;;;30.50;49.20;;;;;;2582751;52;20977;-69
2022/08/30 12:03:40;;;;;;;4.62;2.28;;;30.50;49.20;;;;;;2589473;52;20987;-70
2022/08/30 12:06:08;;;;;;;4.37;2.27;;;30.50;49.20;;;;;;2336055;54;20949;-68
2022/08/30 12:08:43;;;;;;;3.45;1.80;;;30.60;49.20;;;;;;2336701;54;21008;-68
2022/08/30 12:11:59;;;;;;;3.60;2.20;;;30.60;48.90;;;;;;2339118;54;21005;-68
2022/08/30 12:14:47;;;;;;;3.47;1.92;;;30.70;48.50;;;;;;2337704;54;21711;-68
2022/08/30 12:22:20;;;;;;;3.72;2.03;;;30.70;48.60;;;;;;2338185;54;21004;-69
2022/08/30 12:24:49;;;;;;;3.50;1.83;;;30.90;48.90;;;;;;2337636;54;20913;-70
2022/08/30 12:27:30;;;;;;;3.62;1.92;;;30.90;48.50;;;;;;2429505;53;21454;-68
2022/08/30 12:30:01;;;;;;;3.70;2.40;;;31.00;47.40;;;;;;2399473;52;21036;-68
2022/08/30 12:32:28;;;;;;;3.35;2.33;;;31.00;47.40;;;;;;2337595;54;20961;-67
2022/08/30 12:34:58;;;;;;;3.28;2.15;;;31.00;47.60;;;;;;2375318;52;20997;-69
2022/08/30 12:37:32;;;;;;;2.90;1.90;;;31.10;47.20;;;;;;2337986;54;20948;-70
2022/08/30 12:40:10;;;;;;;3.70;2.40;;;31.10;47.10;;;;;;2337783;54;21036;-69
2022/08/30 12:42:40;;;;;;;4.53;2.20;;;31.10;46.40;;;;;;2342371;54;20941;-68
2022/08/30 12:45:10;;;;;;;2.95;2.10;;;31.20;46.90;;;;;;2338424;54;21704;-69
2022/08/30 12:47:48;;;;;;;4.95;2.50;;;31.20;46.60;;;;;;2337277;54;21277;-68
2022/08/30 12:50:17;;;;;;;3.70;2.40;;;31.30;46.00;;;;;;2429218;52;20976;-68
2022/08/30 12:52:45;;;;;;;3.42;2.25;;;31.30;46.40;;;;;;2337093;54;21511;-68
2022/08/30 12:55:28;;;;;;;3.25;1.92;;;31.40;46.30;;;;;;2442024;53;20960;-68
2022/08/30 12:58:09;;;;;;;3.40;2.03;;;31.40;45.90;;;;;;2337581;54;20940;-68
2022/08/30 13:00:39;;;;;;;2.80;1.80;;;31.50;45.70;;;;;;2337518;54;21344;-68
2022/08/30 13:04:00;;;;;;;3.20;2.20;;;31.60;46.00;;;;;;2348278;54;21854;-70
2022/08/30 13:06:48;;;;;;;4.57;2.03;;;31.60;45.70;;;;;;2338014;54;20937;-68
2022/08/30 13:09:35;;;;;;;3.70;2.50;;;31.70;45.30;;;;;;2343020;54;21012;-67
2022/08/30 13:12:03;;;;;;;3.15;2.05;;;31.70;45.40;;;;;;2343679;54;20934;-68
2022/08/30 13:14:43;;;;;;;5.57;2.45;;;31.80;45.60;;;;;;2342134;54;20948;-68
2022/08/30 13:17:26;;;;;;;3.78;2.20;;;31.90;45.30;;;;;;2339595;54;20925;-67
2022/08/30 13:20:25;;;;;;;4.55;2.55;;;31.90;44.70;;;;;;2337814;54;20968;-69
2022/08/30 13:23:08;;;;;;;3.17;1.85;;;32.00;44.40;;;;;;2337749;54;20952;-68
2022/08/30 13:25:34;;;;;;;3.30;2.08;;;32.00;44.10;;;;;;2343154;54;20949;-69
2022/08/30 13:28:02;;;;;;;3.83;1.95;;;32.00;44.40;;;;;;2338167;54;20936;-69
2022/08/30 13:30:28;;;;;;;3.70;2.10;;;32.10;44.30;;;;;;2339350;54;20901;-68
2022/08/30 13:32:54;;;;;;;2.75;1.80;;;32.10;44.00;;;;;;2342493;54;20945;-70
2022/08/30 13:35:21;;;;;;;3.65;2.17;;;32.10;43.90;;;;;;2559286;52;20921;-67
2022/08/30 13:37:48;;;;;;;3.03;2.05;;;32.20;43.90;;;;;;2338202;54;20921;-69
2022/08/30 13:40:16;;;;;;;4.03;2.05;;;32.30;43.90;;;;;;2342604;54;21005;-68
2022/08/30 13:42:42;;;;;;;4.12;2.35;;;32.30;43.50;;;;;;2397558;52;20925;-67
2022/08/30 13:45:10;;;;;;;4.97;2.17;;;32.30;43.50;;;;;;2347920;53;20986;-68
2022/08/30 13:48:06;;;;;;;3.50;1.98;;;32.30;43.30;;;;;;2341101;54;20928;-68
2022/08/30 13:50:33;;;;;;;3.90;2.40;;;32.50;43.10;;;;;;2334110;54;21004;-68
2022/08/30 13:52:59;;;;;;;2.80;1.83;;;32.50;43.00;;;;;;2434120;52;20917;-68
2022/08/30 13:55:26;;;;;;;3.97;2.00;;;32.50;43.00;;;;;;2339327;54;21016;-67
2022/08/30 13:57:53;;;;;;;3.42;2.15;;;32.50;43.00;;;;;;2331979;54;20994;-69
2022/08/30 14:03:48;;;;;;;3.80;1.98;;;32.70;43.30;;;;;;2330556;54;21429;-69
2022/08/30 14:06:44;;;;;;;3.15;1.83;;;32.70;43.70;;;;;;2338500;54;20969;-67
2022/08/30 14:09:40;;;;;;;3.20;1.90;;;32.80;43.20;;;;;;2339808;54;21116;-68
2022/08/30 14:12:07;;;;;;;2.90;1.70;;;32.80;43.10;;;;;;2336743;54;20902;-67
2022/08/30 14:14:36;;;;;;;3.10;1.80;;;32.90;43.00;;;;;;2339270;54;20949;-67
2022/08/30 14:17:09;;;;;;;2.80;1.80;;;33.00;42.90;;;;;;2326512;54;20972;-68
2022/08/30 14:19:35;;;;;;;3.05;1.75;;;33.00;42.80;;;;;;2453578;53;21668;-67
2022/08/30 14:22:03;;;;;;;2.60;1.58;;;33.10;42.70;;;;;;2334145;53;21000;-67
2022/08/30 14:24:31;;;;;;;3.70;1.80;;;33.10;42.50;;;;;;2342048;54;20915;-70
2022/08/30 14:26:57;;;;;;;2.95;1.73;;;33.20;42.30;;;;;;2341992;54;20917;-67
2022/08/30 14:29:28;;;;;;;3.33;2.15;;;33.30;41.90;;;;;;2342453;53;20945;-70
2022/08/30 14:31:59;;;;;;;2.75;1.60;;;33.30;41.30;;;;;;2340381;53;20974;-68
2022/08/30 14:35:20;;;;;;;3.53;1.83;;;33.30;41.20;;;;;;2365651;54;20960;-69
2022/08/30 14:41:47;;;;;;;2.80;1.58;;;33.40;41.00;;;;;;2365456;54;20991;-69
2022/08/30 14:44:14;;;;;;;3.22;1.65;;;33.40;41.00;;;;;;2365088;54;21602;-67
2022/08/30 14:46:41;;;;;;;3.08;1.60;;;33.40;41.30;;;;;;2366191;54;20939;-67
2022/08/30 14:49:10;;;;;;;2.70;1.52;;;33.40;41.20;;;;;;2365486;54;20932;-67
2022/08/30 14:51:39;;;;;;;2.80;1.50;;;33.40;41.30;;;;;;2366055;53;20947;-69